Time;durP1;ratioP1;P1;durP2;ratioP2;P2;SDS_P1;SDS_P2;PMS_P1;PMS_P2;Temp;Humidity;BMP_temperature;BMP_pressure;BME280_temperature;BME280_humidity;BME280_pressure;Samples;Min_cycle;Max_cycle;Signal;HPM_P1;HPM_P2
2021/08/10 00:01:05;;;;;;;14.30;6.57;;;;;;;22.28;67.97;97584.44;5090785;28;20035;-78
2021/08/10 00:03:31;;;;;;;14.10;6.57;;;;;;;22.24;68.17;97581.19;5090493;28;20027;-78
2021/08/10 00:05:57;;;;;;;8.88;6.40;;;;;;;22.23;68.46;97593.13;5090878;28;20112;-78
2021/08/10 00:08:22;;;;;;;12.27;6.95;;;;;;;22.08;68.92;97587.47;5090608;28;20035;-79
2021/08/10 00:10:49;;;;;;;9.15;6.50;;;;;;;22.07;69.52;97591.22;5090617;28;20484;-78
2021/08/10 00:13:18;;;;;;;7.43;6.47;;;;;;;22.00;69.83;97587.44;5091814;28;20028;-78
2021/08/10 00:15:44;;;;;;;10.40;6.45;;;;;;;22.06;69.92;97594.94;5090631;28;20024;-78
2021/08/10 00:18:09;;;;;;;12.32;7.10;;;;;;;22.02;70.44;97604.50;5090762;28;20105;-78
2021/08/10 00:20:36;;;;;;;14.95;7.63;;;;;;;21.90;70.89;97594.88;5089792;28;20096;-78
2021/08/10 00:23:02;;;;;;;10.15;7.35;;;;;;;21.89;70.80;97598.63;5089727;28;20027;-79
2021/08/10 00:25:28;;;;;;;13.90;6.55;;;;;;;21.90;70.64;97611.22;5091386;28;20024;-78
2021/08/10 00:27:53;;;;;;;9.20;6.82;;;;;;;21.87;70.72;97603.34;5091821;28;20403;-78
2021/08/10 00:30:20;;;;;;;7.97;6.70;;;;;;;21.91;69.97;97604.75;5090392;28;20645;-78
2021/08/10 00:32:46;;;;;;;10.98;7.10;;;;;;;21.81;69.75;97606.72;5090378;28;20423;-78
2021/08/10 00:35:11;;;;;;;10.02;6.50;;;;;;;21.72;70.04;97595.97;5090468;28;20034;-78
2021/08/10 00:37:37;;;;;;;13.50;6.70;;;;;;;21.52;70.50;97577.16;5090048;28;20047;-78
2021/08/10 00:40:03;;;;;;;10.90;7.10;;;;;;;21.49;70.75;97590.25;5090020;28;20506;-78
2021/08/10 00:42:29;;;;;;;8.50;6.53;;;;;;;21.49;70.91;97591.09;5090057;28;20491;-78
2021/08/10 00:44:54;;;;;;;10.18;6.70;;;;;;;21.53;70.96;97597.06;5091330;28;20024;-78
2021/08/10 00:47:20;;;;;;;12.20;7.30;;;;;;;21.59;70.75;97601.88;5091301;28;20032;-78
2021/08/10 00:49:46;;;;;;;11.82;6.75;;;;;;;21.63;70.74;97605.97;5090634;28;20502;-78
2021/08/10 00:52:11;;;;;;;10.65;6.65;;;;;;;21.69;71.11;97601.75;5091393;28;20024;-78
2021/08/10 00:54:37;;;;;;;11.90;7.05;;;;;;;21.71;70.88;97594.25;5091112;28;20031;-78
2021/08/10 00:57:03;;;;;;;10.43;6.43;;;;;;;21.73;70.66;97576.75;5091178;28;20120;-78
2021/08/10 00:59:28;;;;;;;12.05;7.22;;;;;;;21.87;70.24;97594.34;5089560;28;20162;-78
2021/08/10 01:01:54;;;;;;;12.65;6.75;;;;;;;21.80;70.66;97580.53;5090074;28;20165;-78
2021/08/10 01:04:20;;;;;;;13.02;7.35;;;;;;;21.67;71.22;97588.28;5090079;28;20042;-78
2021/08/10 01:07:03;;;;;;;11.25;7.13;;;;;;;21.60;71.77;97581.78;5089822;28;20039;-79
2021/08/10 01:09:37;;;;;;;10.70;6.78;;;;;;;21.57;72.30;97603.88;5089280;28;20039;-77
2021/08/10 01:12:07;;;;;;;13.82;7.57;;;;;;;21.47;73.08;97592.28;5089814;28;20077;-78
2021/08/10 01:14:57;;;;;;;11.18;7.47;;;;;;;21.44;73.63;97585.25;5089797;28;20415;-78
2021/08/10 01:17:29;;;;;;;12.85;7.45;;;;;;;21.34;73.76;97575.53;5061330;28;20408;-78
2021/08/10 01:20:11;;;;;;;18.00;7.37;;;;;;;21.43;74.01;97586.31;5086025;28;20024;-78
2021/08/10 01:22:38;;;;;;;15.60;8.10;;;;;;;21.38;73.91;97588.63;5089873;28;20440;-78
2021/08/10 01:25:27;;;;;;;12.60;7.30;;;;;;;21.44;73.94;97579.00;5089765;28;20034;-78
2021/08/10 01:28:27;;;;;;;13.10;7.60;;;;;;;21.54;73.53;97582.44;5085420;28;20032;-78
2021/08/10 01:31:12;;;;;;;11.55;7.15;;;;;;;21.56;73.24;97574.97;5072861;28;20028;-78
2021/08/10 01:33:40;;;;;;;13.00;7.38;;;;;;;21.59;72.80;97564.59;5090852;28;20028;-78
2021/08/10 01:36:08;;;;;;;15.65;7.40;;;;;;;21.70;72.78;97566.19;5109865;28;20464;-78
2021/08/10 01:38:34;;;;;;;13.13;7.70;;;;;;;21.74;72.75;97574.88;5093306;28;20044;-78
2021/08/10 01:41:00;;;;;;;12.77;7.80;;;;;;;21.67;72.86;97574.66;5093462;28;20028;-79
2021/08/10 01:43:28;;;;;;;11.98;7.85;;;;;;;21.62;72.72;97574.31;5093435;28;20031;-78
2021/08/10 01:45:54;;;;;;;12.75;7.50;;;;;;;21.63;73.00;97581.44;5089729;28;20028;-78
2021/08/10 01:48:20;;;;;;;15.45;7.53;;;;;;;21.54;73.06;97560.66;5075190;28;20085;-79
2021/08/10 01:50:46;;;;;;;11.55;7.68;;;;;;;21.60;73.10;97568.16;5093380;28;20113;-79
2021/08/10 01:53:12;;;;;;;17.42;7.57;;;;;;;21.48;73.33;97555.84;5076290;28;20032;-79
2021/08/10 01:55:38;;;;;;;15.38;7.57;;;;;;;21.44;73.68;97554.50;5093156;28;20056;-78
2021/08/10 01:58:04;;;;;;;12.50;7.47;;;;;;;21.44;74.21;97576.28;5093322;28;20056;-78
2021/08/10 02:00:32;;;;;;;11.00;7.57;;;;;;;21.39;74.19;97556.81;5093194;28;20044;-78
2021/08/10 02:02:58;;;;;;;12.02;7.80;;;;;;;21.43;74.40;97571.84;5076111;28;20118;-78
2021/08/10 02:05:24;;;;;;;15.27;7.90;;;;;;;21.38;74.78;97566.03;5093131;28;20468;-79
2021/08/10 02:07:49;;;;;;;12.65;7.70;;;;;;;21.35;75.03;97563.63;5092903;28;20032;-78
2021/08/10 02:10:16;;;;;;;14.45;8.07;;;;;;;21.26;75.45;97567.28;5093030;28;20032;-78
2021/08/10 02:12:42;;;;;;;15.30;7.70;;;;;;;21.27;75.90;97580.75;5092873;28;20594;-78
2021/08/10 02:15:08;;;;;;;13.70;8.52;;;;;;;21.23;76.16;97578.50;5092805;28;20476;-78
2021/08/10 02:17:34;;;;;;;19.80;7.93;;;;;;;21.10;76.61;97564.50;5094094;28;20028;-78
2021/08/10 02:19:59;;;;;;;12.25;8.07;;;;;;;21.15;76.44;97583.91;5092574;28;20032;-78
2021/08/10 02:22:27;;;;;;;14.60;8.32;;;;;;;21.01;76.65;97571.72;5092874;28;20028;-78
2021/08/10 02:24:59;;;;;;;13.60;9.00;;;;;;;21.10;77.14;97588.97;5092617;28;20028;-78
2021/08/10 02:27:37;;;;;;;24.38;8.45;;;;;;;21.10;77.29;97588.97;5092737;28;20471;-78
2021/08/10 02:30:08;;;;;;;17.45;7.85;;;;;;;21.06;77.60;97591.97;5092492;28;20084;-78
2021/08/10 02:32:35;;;;;;;14.52;8.75;;;;;;;20.95;77.97;97589.50;5092577;28;20024;-78
2021/08/10 02:35:01;;;;;;;11.57;7.97;;;;;;;20.96;77.31;97593.09;5092531;28;20052;-79
2021/08/10 02:37:27;;;;;;;12.10;8.20;;;;;;;20.93;77.28;97602.41;5092317;28;20040;-79
2021/08/10 02:39:53;;;;;;;30.48;8.10;;;;;;;20.89;76.64;97587.41;5092314;28;20032;-78
2021/08/10 02:42:23;;;;;;;13.77;7.55;;;;;;;20.99;76.74;97595.47;5089605;28;20031;-78
2021/08/10 02:44:50;;;;;;;12.95;7.68;;;;;;;21.06;76.02;97599.28;5091810;28;20487;-77
2021/08/10 02:47:17;;;;;;;14.82;7.35;;;;;;;21.20;75.83;97592.44;5091401;28;20032;-78
2021/08/10 02:49:43;;;;;;;13.25;7.28;;;;;;;21.12;75.41;97581.50;5092783;28;20055;-78
2021/08/10 02:52:09;;;;;;;12.77;7.50;;;;;;;21.05;75.96;97606.59;5091964;28;20105;-78
2021/08/10 02:54:36;;;;;;;19.45;7.88;;;;;;;21.01;76.61;97596.19;5092273;28;20039;-78
2021/08/10 02:57:20;;;;;;;11.93;7.32;;;;;;;21.05;76.38;97603.88;5092062;28;20406;-78
2021/08/10 03:00:06;;;;;;;13.35;7.53;;;;;;;20.97;76.71;97601.09;5071224;28;20032;-78
2021/08/10 03:02:43;;;;;;;18.35;7.93;;;;;;;21.03;77.09;97611.34;5091987;28;20035;-78
2021/08/10 03:05:12;;;;;;;20.85;8.65;;;;;;;20.96;77.87;97614.84;5091905;28;20103;-78
2021/08/10 03:07:42;;;;;;;15.45;8.07;;;;;;;20.84;77.96;97611.53;5091880;28;20024;-78
2021/08/10 03:10:08;;;;;;;23.45;8.52;;;;;;;20.78;78.61;97619.44;5091417;28;20779;-78
2021/08/10 03:12:36;;;;;;;20.15;9.93;;;;;;;20.49;80.10;97603.38;5091625;28;20039;-78
2021/08/10 03:15:03;;;;;;;15.23;9.35;;;;;;;20.37;81.27;97610.91;5091671;28;20032;-78
2021/08/10 03:17:32;;;;;;;17.95;8.68;;;;;;;20.42;81.18;97624.03;5091739;28;20031;-78
2021/08/10 03:19:59;;;;;;;16.13;8.85;;;;;;;20.34;81.48;97607.63;5091479;28;20062;-79
2021/08/10 03:22:25;;;;;;;12.93;8.57;;;;;;;20.36;81.62;97622.81;5091509;28;20031;-79
2021/08/10 03:24:54;;;;;;;13.50;8.65;;;;;;;20.30;82.31;97619.84;5091901;28;20419;-81
2021/08/10 03:27:19;;;;;;;15.80;8.70;;;;;;;20.25;82.71;97619.38;5091695;28;20107;-79
2021/08/10 03:29:46;;;;;;;17.90;9.77;;;;;;;20.23;83.11;97626.84;5091456;28;20103;-79
2021/08/10 03:32:14;;;;;;;14.85;9.35;;;;;;;20.21;83.87;97624.28;5092497;28;20024;-79
2021/08/10 03:34:40;;;;;;;22.83;9.05;;;;;;;20.21;83.57;97624.28;5091380;28;20048;-79
2021/08/10 03:37:07;;;;;;;17.73;9.05;;;;;;;20.21;83.55;97618.00;5091166;28;20689;-79
2021/08/10 03:39:33;;;;;;;14.55;8.70;;;;;;;20.17;83.03;97619.31;5091137;28;20024;-80
2021/08/10 03:42:00;;;;;;;12.05;8.10;;;;;;;20.32;82.54;97620.53;5091123;28;20031;-78
2021/08/10 03:44:26;;;;;;;12.48;8.05;;;;;;;20.31;81.90;97606.09;5091348;28;20023;-80
2021/08/10 03:46:51;;;;;;;19.25;8.45;;;;;;;20.37;81.69;97624.50;5091213;28;20031;-80
2021/08/10 03:49:21;;;;;;;30.98;9.35;;;;;;;20.46;82.18;97633.56;5091137;28;20020;-79
2021/08/10 03:51:47;;;;;;;27.40;10.38;;;;;;;20.50;82.14;97634.97;5091130;28;20031;-80
2021/08/10 03:54:13;;;;;;;17.88;9.63;;;;;;;20.47;81.88;97624.41;5092114;28;20024;-80
2021/08/10 03:56:38;;;;;;;20.80;8.68;;;;;;;20.50;81.28;97630.41;5091000;28;20020;-79
2021/08/10 03:59:04;;;;;;;21.05;9.65;;;;;;;20.50;81.91;97640.41;5090540;28;20073;-80
2021/08/10 04:01:31;;;;;;;26.67;9.68;;;;;;;20.59;81.83;97646.78;5090898;28;20101;-80
2021/08/10 04:03:58;;;;;;;24.83;9.48;;;;;;;20.61;81.06;97648.34;5090749;28;20475;-79
2021/08/10 04:06:25;;;;;;;22.08;10.00;;;;;;;20.68;80.60;97644.00;5090619;28;20093;-80
2021/08/10 04:08:51;;;;;;;23.25;11.30;;;;;;;20.75;80.52;97652.38;5073757;28;20123;-80
2021/08/10 04:11:20;;;;;;;17.20;10.23;;;;;;;20.73;80.21;97643.53;5090544;28;20483;-80
2021/08/10 04:13:46;;;;;;;27.10;9.90;;;;;;;20.86;79.81;97653.00;5090710;28;20040;-79
2021/08/10 04:16:14;;;;;;;28.55;11.27;;;;;;;20.86;79.83;97647.56;5090519;28;20123;-79
2021/08/10 04:18:41;;;;;;;22.38;10.45;;;;;;;20.85;79.67;97650.44;5090679;28;20086;-80
2021/08/10 04:21:06;;;;;;;21.77;9.57;;;;;;;20.81;79.60;97649.91;5090632;28;20023;-78
2021/08/10 04:23:32;;;;;;;23.23;9.75;;;;;;;20.96;79.66;97661.94;5091549;28;20418;-78
2021/08/10 04:25:57;;;;;;;23.83;10.52;;;;;;;21.02;78.79;97658.59;5091796;28;20479;-78
2021/08/10 04:28:23;;;;;;;16.80;8.40;;;;;;;21.11;77.22;97667.69;5090147;28;20036;-78
2021/08/10 04:30:48;;;;;;;16.40;8.60;;;;;;;21.08;76.44;97660.72;5090295;28;20028;-78
2021/08/10 04:33:14;;;;;;;11.93;8.40;;;;;;;21.07;76.22;97656.25;5091436;28;20081;-78
2021/08/10 04:35:40;;;;;;;17.65;8.50;;;;;;;20.94;77.06;97661.25;5090049;28;20115;-78
2021/08/10 04:38:05;;;;;;;17.65;9.05;;;;;;;20.83;77.81;97664.19;5089792;28;20101;-78
2021/08/10 04:40:31;;;;;;;15.27;8.55;;;;;;;20.89;78.04;97674.44;5091180;28;20411;-78
2021/08/10 04:42:58;;;;;;;18.10;9.70;;;;;;;20.87;77.96;97653.84;5090198;28;20507;-78
2021/08/10 04:45:24;;;;;;;25.27;10.00;;;;;;;21.14;77.03;97677.41;5091050;28;20024;-79
2021/08/10 04:47:49;;;;;;;20.73;9.43;;;;;;;21.33;76.50;97677.22;5090564;28;20028;-78
2021/08/10 04:50:16;;;;;;;23.95;9.57;;;;;;;21.50;75.69;97670.91;5090010;28;20023;-78
2021/08/10 04:52:41;;;;;;;40.95;10.48;;;;;;;21.61;75.39;97678.78;5091290;28;20483;-78
2021/08/10 04:55:07;;;;;;;21.88;10.40;;;;;;;21.62;74.81;97665.00;5090120;28;20028;-78
2021/08/10 04:57:33;;;;;;;31.17;11.05;;;;;;;21.83;74.63;97686.41;5089398;28;20524;-78
2021/08/10 04:59:59;;;;;;;32.30;11.05;;;;;;;21.85;74.24;97681.66;5089253;28;20127;-78
2021/08/10 05:02:24;;;;;;;27.42;12.00;;;;;;;21.93;73.76;97686.34;5072979;28;20103;-78
2021/08/10 05:04:50;;;;;;;28.98;11.80;;;;;;;21.94;73.54;97690.75;5089812;28;20457;-78
2021/08/10 05:07:15;;;;;;;24.60;12.13;;;;;;;21.95;73.04;97687.88;5073091;28;20499;-79
2021/08/10 05:09:42;;;;;;;27.63;11.82;;;;;;;21.99;72.91;97681.09;5091750;28;20063;-79
2021/08/10 05:12:08;;;;;;;40.15;13.07;;;;;;;22.07;72.74;97691.16;5077317;28;20024;-80
2021/08/10 05:14:33;;;;;;;20.75;10.75;;;;;;;22.18;71.72;97684.59;5076480;28;20427;-79
2021/08/10 05:16:59;;;;;;;40.05;12.13;;;;;;;22.29;71.25;97687.88;5094623;28;20111;-80
2021/08/10 05:19:25;;;;;;;17.95;10.13;;;;;;;22.40;71.18;97682.09;5096121;28;20111;-81
2021/08/10 05:21:50;;;;;;;24.05;10.18;;;;;;;22.34;71.14;97671.84;5093910;28;20055;-80
2021/08/10 05:24:16;;;;;;;24.90;10.00;;;;;;;22.65;70.65;97692.09;5076618;28;20028;-80
2021/08/10 05:26:46;;;;;;;21.38;10.38;;;;;;;22.88;69.56;97705.13;5094698;28;20058;-78
2021/08/10 05:29:12;;;;;;;89.95;12.93;;;;;;;23.11;68.44;97701.56;5090904;28;20107;-78
2021/08/10 05:31:38;;;;;;;50.17;15.32;;;;;;;23.51;66.73;97699.88;5092367;28;20535;-79
2021/08/10 05:34:04;;;;;;;68.40;18.92;;;;;;;23.75;65.61;97699.84;5093133;28;20020;-78
2021/08/10 05:36:29;;;;;;;103.65;14.82;;;;;;;23.86;64.09;97695.91;5092812;28;20782;-78
2021/08/10 05:38:55;;;;;;;106.05;31.15;;;;;;;24.03;63.75;97687.47;5094495;28;20048;-79
2021/08/10 05:41:22;;;;;;;81.30;14.40;;;;;;;24.74;61.44;97709.25;5092718;28;20522;-79
2021/08/10 05:43:48;;;;;;;46.15;13.13;;;;;;;25.75;58.68;97709.06;5094068;28;20106;-83
2021/08/10 05:46:16;;;;;;;45.03;11.57;;;;;;;26.47;55.92;97706.59;5077311;28;20392;-83
2021/08/10 05:48:42;;;;;;;128.98;14.30;;;;;;;28.23;51.00;97718.59;5093912;28;20407;-83
2021/08/10 05:51:07;;;;;;;104.43;36.05;;;;;;;28.89;48.42;97683.16;5077222;28;20020;-83
2021/08/10 05:53:34;;;;;;;84.82;27.58;;;;;;;30.01;46.01;97722.84;5094003;28;20121;-83
2021/08/10 05:56:00;;;;;;;44.72;15.88;;;;;;;30.14;45.46;97717.31;5076995;28;20483;-83
2021/08/10 05:58:25;;;;;;;55.38;23.52;;;;;;;29.32;46.35;97670.78;5073499;28;20031;-83
2021/08/10 06:00:51;;;;;;;22.33;13.07;;;;;;;28.47;48.28;97718.13;5056733;28;20487;-83
2021/08/10 06:03:17;;;;;;;169.90;18.33;;;;;;;29.15;46.90;97704.44;5073628;28;20038;-83
2021/08/10 06:05:43;;;;;;;51.28;12.70;;;;;;;29.96;44.22;97708.84;5056750;28;20028;-83
2021/08/10 06:08:08;;;;;;;24.92;12.70;;;;;;;30.51;43.44;97691.78;5056592;28;20028;-84
2021/08/10 06:10:34;;;;;;;192.60;18.27;;;;;;;32.34;39.92;97699.97;5085271;28;20042;-84
2021/08/10 06:13:00;;;;;;;81.35;30.77;;;;;;;33.04;38.34;97711.56;5076459;28;20505;-78
2021/08/10 06:15:27;;;;;;;35.08;13.07;;;;;;;33.08;37.46;97707.25;5093848;28;20540;-79
2021/08/10 06:17:53;;;;;;;69.88;12.07;;;;;;;33.10;37.48;97716.22;5092565;28;20452;-79
2021/08/10 06:20:21;;;;;;;21.65;9.52;;;;;;;33.67;36.70;97706.44;5075588;28;20563;-79
2021/08/10 06:22:47;;;;;;;297.75;21.35;;;;;;;34.51;35.00;97700.53;5092557;28;20495;-79
2021/08/10 06:25:13;;;;;;;34.00;9.55;;;;;;;34.95;33.69;97676.75;5092595;28;20030;-80
2021/08/10 06:27:38;;;;;;;45.75;10.88;;;;;;;35.31;33.02;97697.84;5075487;28;20107;-79
2021/08/10 06:30:06;;;;;;;33.15;10.75;;;;;;;36.15;32.33;97696.88;5092672;28;20031;-79
2021/08/10 06:32:31;;;;;;;31.38;9.38;;;;;;;36.48;31.31;97698.81;5075838;28;20031;-77
2021/08/10 06:34:57;;;;;;;15.57;9.00;;;;;;;36.73;31.07;97706.75;5092327;28;20050;-79
2021/08/10 06:37:22;;;;;;;30.23;8.85;;;;;;;37.12;30.33;97696.38;5093624;28;20028;-78
2021/08/10 06:39:48;;;;;;;29.73;8.82;;;;;;;36.75;30.52;97698.94;5092166;28;20031;-78
2021/08/10 06:42:18;;;;;;;532.47;52.80;;;;;;;37.68;29.58;97701.53;5093766;28;20548;-78
2021/08/10 06:44:43;;;;;;;29.83;9.88;;;;;;;37.27;29.96;97691.84;5092237;28;20499;-78
2021/08/10 06:47:09;;;;;;;44.13;11.18;;;;;;;37.31;29.62;97690.22;5092116;28;20066;-78
2021/08/10 06:49:34;;;;;;;395.48;29.88;;;;;;;36.99;29.70;97688.41;5092630;28;20044;-78
2021/08/10 06:52:00;;;;;;;30.50;8.60;;;;;;;37.80;28.54;97690.19;5092163;28;20079;-79
2021/08/10 06:54:25;;;;;;;14.73;7.90;;;;;;;38.49;27.20;97686.31;5109360;28;20027;-78
2021/08/10 06:56:51;;;;;;;12.50;7.63;;;;;;;38.59;27.11;97679.94;5091957;28;20576;-79
2021/08/10 06:59:17;;;;;;;21.73;7.50;;;;;;;38.86;26.56;97677.03;5092358;28;20024;-79
2021/08/10 07:01:42;;;;;;;31.70;7.90;;;;;;;38.53;26.75;97672.63;5092041;28;20533;-79
2021/08/10 07:04:08;;;;;;;15.48;7.30;;;;;;;38.96;25.67;97654.69;5092043;28;20506;-78
2021/08/10 07:06:33;;;;;;;14.50;8.75;;;;;;;39.73;25.07;97677.09;5093519;28;20129;-79
2021/08/10 07:09:04;;;;;;;13.02;7.75;;;;;;;39.78;25.23;97662.28;5091858;28;20446;-79
2021/08/10 07:11:30;;;;;;;22.38;8.10;;;;;;;39.70;25.71;97674.84;5091819;28;20020;-79
2021/08/10 07:13:56;;;;;;;14.02;7.55;;;;;;;41.23;24.25;97679.16;5091547;28;20069;-79
2021/08/10 07:16:21;;;;;;;15.98;8.40;;;;;;;40.96;23.89;97660.75;5091701;28;20157;-79
2021/08/10 07:18:47;;;;;;;15.80;8.10;;;;;;;39.84;25.55;97672.38;5093017;28;20027;-79
2021/08/10 07:21:12;;;;;;;17.85;7.70;;;;;;;40.56;24.70;97669.28;5091657;28;20115;-78
2021/08/10 07:23:38;;;;;;;1027.90;73.03;;;;;;;40.26;25.21;97660.88;5093016;28;20103;-78
2021/08/10 07:26:03;;;;;;;117.32;13.18;;;;;;;40.70;24.35;97670.38;5074632;28;20031;-78
2021/08/10 07:28:29;;;;;;;112.07;12.70;;;;;;;40.88;24.03;97683.78;5091582;28;20024;-78
2021/08/10 07:30:55;;;;;;;23.92;7.97;;;;;;;41.28;23.00;97639.81;5091352;28;20020;-78
2021/08/10 07:33:20;;;;;;;22.73;8.32;;;;;;;41.43;23.12;97667.88;5091053;28;20475;-78
2021/08/10 07:35:46;;;;;;;54.25;8.80;;;;;;;41.56;23.07;97672.84;5091520;28;20027;-78
2021/08/10 07:38:11;;;;;;;92.80;10.35;;;;;;;41.02;23.54;97670.00;5090988;28;20052;-78
2021/08/10 07:40:37;;;;;;;21.83;7.38;;;;;;;40.90;23.68;97669.44;5091358;28;20081;-78
2021/08/10 07:43:03;;;;;;;36.70;7.85;;;;;;;39.55;25.17;97670.03;5092207;28;20020;-79
2021/08/10 07:45:28;;;;;;;91.90;11.55;;;;;;;39.45;25.74;97680.38;5092405;28;20020;-78
2021/08/10 07:47:54;;;;;;;43.97;8.40;;;;;;;38.69;26.96;97687.56;5091099;28;20028;-79
2021/08/10 07:50:20;;;;;;;173.35;14.77;;;;;;;37.92;28.23;97686.16;5091152;28;20094;-78
2021/08/10 07:52:47;;;;;;;29.67;9.48;;;;;;;37.65;28.44;97664.91;5090943;28;20062;-78
2021/08/10 07:55:13;;;;;;;61.20;12.15;;;;;;;37.85;28.19;97682.69;5090803;28;20028;-79
2021/08/10 07:57:43;;;;;;;472.33;30.67;;;;;;;37.25;29.19;97688.47;5090986;28;20174;-78
2021/08/10 08:00:09;;;;;;;55.05;10.30;;;;;;;38.09;28.22;97687.94;5073779;28;20127;-79
2021/08/10 08:02:35;;;;;;;50.20;10.73;;;;;;;38.31;28.01;97674.69;5073997;28;20064;-78
2021/08/10 08:05:00;;;;;;;37.15;9.23;;;;;;;38.69;27.26;97670.78;5090881;28;20032;-78
2021/08/10 08:07:26;;;;;;;52.28;10.18;;;;;;;39.69;25.98;97664.75;5090904;28;20560;-79
2021/08/10 08:09:51;;;;;;;61.00;10.48;;;;;;;40.48;25.07;97655.81;5073923;28;20111;-78
2021/08/10 08:12:17;;;;;;;21.30;7.65;;;;;;;42.32;22.75;97680.75;5090714;28;20031;-78
2021/08/10 08:14:44;;;;;;;14.13;6.90;;;;;;;43.50;20.93;97654.63;5092179;28;20521;-78
2021/08/10 08:17:11;;;;;;;25.75;8.73;;;;;;;44.66;19.87;97664.03;5090655;28;20452;-79
2021/08/10 08:19:37;;;;;;;15.63;7.50;;;;;;;45.91;18.63;97650.31;5090780;28;20483;-78
2021/08/10 08:22:03;;;;;;;40.53;7.85;;;;;;;46.30;18.71;97664.66;5090366;28;20043;-78
2021/08/10 08:24:28;;;;;;;19.80;6.90;;;;;;;46.09;18.35;97655.84;5090597;28;20028;-79
2021/08/10 08:26:54;;;;;;;150.15;11.02;;;;;;;45.73;18.83;97657.84;5090635;28;20538;-79
2021/08/10 08:29:19;;;;;;;49.90;8.70;;;;;;;46.14;17.19;97635.91;5090333;28;20036;-79
2021/08/10 08:31:45;;;;;;;36.13;6.28;;;;;;;46.56;16.26;97647.84;5090212;28;20028;-79
2021/08/10 08:34:11;;;;;;;9.88;5.72;;;;;;;46.12;16.83;97629.72;5090469;28;20498;-79
2021/08/10 08:36:36;;;;;;;278.45;15.98;;;;;;;46.81;16.49;97630.16;5090513;28;20039;-79
2021/08/10 08:39:02;;;;;;;310.55;17.98;;;;;;;46.35;17.34;97632.53;5091081;28;20051;-79
2021/08/10 08:41:28;;;;;;;16.90;5.38;;;;;;;44.65;18.63;97631.28;5090266;28;20031;-79
2021/08/10 08:43:53;;;;;;;53.80;7.75;;;;;;;45.34;17.76;97630.16;5089911;28;20024;-79
2021/08/10 08:46:20;;;;;;;41.60;6.70;;;;;;;46.48;17.00;97625.97;5073070;28;20118;-79
2021/08/10 08:48:46;;;;;;;13.45;7.07;;;;;;;47.22;16.25;97629.84;5090266;28;20038;-78
2021/08/10 08:51:16;;;;;;;27.20;6.55;;;;;;;46.47;16.63;97621.47;5090149;28;20048;-79
2021/08/10 08:53:44;;;;;;;46.35;7.25;;;;;;;45.94;17.92;97625.06;5091381;28;20035;-79
2021/08/10 08:56:09;;;;;;;20.58;7.80;;;;;;;46.04;17.32;97632.47;5089925;28;20423;-79
2021/08/10 08:58:35;;;;;;;8.82;5.38;;;;;;;46.00;16.64;97626.59;5073464;28;20024;-80
2021/08/10 09:01:00;;;;;;;13.15;5.65;;;;;;;45.96;17.26;97622.75;5090029;28;20068;-79
2021/08/10 09:03:26;;;;;;;15.57;5.38;;;;;;;45.03;17.86;97617.81;5091274;28;20051;-79
2021/08/10 09:05:51;;;;;;;20.17;5.47;;;;;;;45.26;17.44;97611.06;5090345;28;20597;-79
2021/08/10 09:08:31;;;;;;;17.05;5.35;;;;;;;45.93;16.84;97622.56;5089919;28;20024;-79
2021/08/10 09:10:59;;;;;;;7.20;4.95;;;;;;;47.08;16.22;97612.91;5073322;28;20044;-79
2021/08/10 09:13:25;;;;;;;7.80;4.45;;;;;;;47.05;15.50;97599.41;5073022;28;20028;-80
2021/08/10 09:15:51;;;;;;;10.98;4.88;;;;;;;46.33;16.35;97598.03;5089942;28;20388;-79
2021/08/10 09:18:19;;;;;;;10.70;4.30;;;;;;;46.20;16.73;97597.81;5089865;28;20064;-79
2021/08/10 09:21:02;;;;;;;14.35;5.10;;;;;;;46.66;15.92;97605.91;5089997;28;20028;-79
2021/08/10 09:23:50;;;;;;;13.98;5.32;;;;;;;47.16;15.21;97597.97;5090923;28;20042;-79
2021/08/10 09:26:21;;;;;;;12.73;4.40;;;;;;;46.97;15.51;97588.03;5089771;28;20028;-79
2021/08/10 09:28:48;;;;;;;6.88;4.32;;;;;;;46.49;16.18;97585.16;5073089;28;20064;-79
2021/08/10 09:31:32;;;;;;;27.80;5.05;;;;;;;45.79;16.04;97583.00;5072990;28;20032;-79
2021/08/10 09:34:09;;;;;;;7.43;4.13;;;;;;;46.25;15.79;97586.34;5091087;28;20035;-80
2021/08/10 09:36:35;;;;;;;8.23;3.95;;;;;;;45.54;16.07;97575.13;5089744;28;20443;-80
2021/08/10 09:39:01;;;;;;;5.43;4.13;;;;;;;45.06;16.55;97567.16;5089791;28;20127;-79
2021/08/10 09:41:27;;;;;;;8.48;4.10;;;;;;;45.54;15.65;97558.16;5089579;28;20028;-79
2021/08/10 09:44:25;;;;;;;8.65;3.92;;;;;;;45.98;15.35;97561.00;5089742;28;20130;-79
2021/08/10 09:46:53;;;;;;;7.03;4.20;;;;;;;46.19;15.86;97567.81;5064146;28;20053;-79
2021/08/10 09:49:19;;;;;;;14.38;4.70;;;;;;;46.81;15.55;97546.00;5089664;28;20057;-79
2021/08/10 09:51:50;;;;;;;98.93;7.65;;;;;;;47.51;14.57;97553.47;5090019;28;20498;-79
2021/08/10 09:54:18;;;;;;;11.50;3.70;;;;;;;46.77;15.36;97556.28;5106472;28;20024;-79
2021/08/10 09:56:55;;;;;;;4.75;3.65;;;;;;;46.47;15.22;97554.34;5092346;28;20483;-79
2021/08/10 09:59:24;;;;;;;17.80;4.90;;;;;;;46.89;15.13;97552.84;5093378;28;20047;-79
2021/08/10 10:01:56;;;;;;;11.50;5.80;;;;;;;48.05;14.48;97540.59;5094767;28;20475;-79
2021/08/10 10:04:31;;;;;;;30.15;5.45;;;;;;;49.82;13.76;97553.69;5076305;28;20024;-79
2021/08/10 10:06:58;;;;;;;61.05;6.50;;;;;;;49.31;13.78;97544.44;5076348;28;20024;-80
2021/08/10 10:09:25;;;;;;;23.92;6.18;;;;;;;45.62;16.36;97544.09;5093115;28;20039;-79
2021/08/10 10:11:54;;;;;;;103.47;11.50;;;;;;;46.69;16.06;97542.09;5093090;28;20426;-79
2021/08/10 10:14:21;;;;;;;29.08;4.72;;;;;;;45.50;16.76;97540.16;5093067;28;20024;-79
2021/08/10 10:16:51;;;;;;;15.60;4.53;;;;;;;46.09;16.41;97551.09;5093201;28;20020;-78
2021/08/10 10:19:21;;;;;;;10.13;4.15;;;;;;;44.90;17.26;97539.53;5076025;28;20024;-79
2021/08/10 10:21:52;;;;;;;41.03;5.82;;;;;;;43.69;18.19;97531.38;5093902;28;20085;-85
2021/08/10 10:24:20;;;;;;;105.75;8.55;;;;;;;44.21;17.85;97533.03;5100318;28;20024;-84
2021/08/10 10:26:53;;;;;;;103.85;8.00;;;;;;;43.41;18.00;97526.81;5095079;28;20051;-84
2021/08/10 10:29:19;;;;;;;13.57;4.88;;;;;;;44.27;17.59;97526.16;5077899;28;20030;-84
2021/08/10 10:31:54;;;;;;;34.05;5.85;;;;;;;45.23;16.90;97532.56;5095014;28;20106;-82
2021/08/10 10:34:20;;;;;;;1999.90;198.68;;;;;;;46.85;15.78;97506.50;5077984;28;20469;-84
2021/08/10 10:36:49;;;;;;;1537.05;149.10;;;;;;;47.55;15.15;97519.59;5096103;28;20822;-86
2021/08/10 10:39:39;;;;;;;754.35;70.55;;;;;;;47.43;15.43;97525.94;5077440;28;20052;-84
2021/08/10 10:42:07;;;;;;;128.17;15.20;;;;;;;47.68;15.08;97524.28;5077777;28;20447;-84
2021/08/10 10:44:49;;;;;;;32.35;5.57;;;;;;;46.15;15.94;97507.34;5082443;28;21649;-76
2021/08/10 10:47:22;;;;;;;7.50;4.63;;;;;;;45.64;17.07;97526.78;5101503;28;20506;-85
2021/08/10 10:50:14;;;;;;;396.10;24.05;;;;;;;46.62;16.20;97525.56;5094210;28;20024;-84
2021/08/10 10:52:41;;;;;;;115.82;9.30;;;;;;;45.90;16.80;97498.72;5076749;28;20073;-84
2021/08/10 10:55:07;;;;;;;47.15;6.53;;;;;;;45.51;16.98;97510.72;5112134;28;20020;-84
2021/08/10 11:01:13;;;;;;;22.98;5.32;;;;;;;45.88;16.84;97509.50;5096142;28;20035;-84
2021/08/10 11:03:41;;;;;;;15.70;4.70;;;;;;;47.38;15.35;97502.59;5077406;28;20032;-85
2021/08/10 11:06:30;;;;;;;33.05;5.28;;;;;;;48.71;14.54;97506.94;5096627;28;20036;-85
2021/08/10 11:08:56;;;;;;;30.60;5.60;;;;;;;48.70;14.84;97505.31;5084000;28;20139;-85
2021/08/10 11:11:50;;;;;;;27.00;5.25;;;;;;;48.92;14.66;97510.66;5113142;28;20027;-86
2021/08/10 11:14:39;;;;;;;32.42;7.18;;;;;;;46.86;16.33;97496.81;5094585;28;20454;-85
2021/08/10 11:17:07;;;;;;;47.50;6.70;;;;;;;47.59;15.61;97506.44;5092327;28;20040;-85
2021/08/10 11:19:34;;;;;;;177.05;12.82;;;;;;;47.13;15.73;97487.19;5093382;28;21781;-86
2021/08/10 11:22:15;;;;;;;168.70;12.13;;;;;;;47.33;15.56;97495.91;5088457;28;20384;-86
2021/08/10 11:25:02;;;;;;;;;;;;;;;47.66;15.43;97498.22;5093275;28;20046;-86
2021/08/10 11:27:34;;;;;;;94.50;11.52;;;;;;;46.94;15.47;97493.19;5092400;28;20007;-86
2021/08/10 11:30:01;;;;;;;16.50;5.32;;;;;;;45.74;16.40;97482.16;5092748;28;20032;-85